sensor_id;sensor_type;location;lat;lon;timestamp;P1;durP1;ratioP1;P2;durP2;ratioP2
15806;SDS011;8005;51.368;6.140;2023-02-19T00:03:01;26.75;;;15.38;;
15806;SDS011;8005;51.368;6.140;2023-02-19T00:04:34;27.38;;;15.65;;
15806;SDS011;8005;51.368;6.140;2023-02-19T00:06:07;26.70;;;16.10;;
15806;SDS011;8005;51.368;6.140;2023-02-19T00:07:45;25.33;;;15.48;;
15806;SDS011;8005;51.368;6.140;2023-02-19T00:09:19;26.73;;;15.88;;
15806;SDS011;8005;51.368;6.140;2023-02-19T00:10:52;25.13;;;15.75;;
15806;SDS011;8005;51.368;6.140;2023-02-19T00:12:24;27.38;;;15.52;;
15806;SDS011;8005;51.368;6.140;2023-02-19T00:13:56;29.40;;;15.95;;
15806;SDS011;8005;51.368;6.140;2023-02-19T00:15:32;28.15;;;15.38;;
15806;SDS011;8005;51.368;6.140;2023-02-19T00:17:04;28.75;;;16.05;;
15806;SDS011;8005;51.368;6.140;2023-02-19T00:18:40;25.27;;;15.18;;
15806;SDS011;8005;51.368;6.140;2023-02-19T00:20:13;25.55;;;15.45;;
15806;SDS011;8005;51.368;6.140;2023-02-19T00:21:49;26.98;;;16.20;;
15806;SDS011;8005;51.368;6.140;2023-02-19T00:23:22;30.10;;;17.50;;
15806;SDS011;8005;51.368;6.140;2023-02-19T00:24:54;29.05;;;16.58;;
15806;SDS011;8005;51.368;6.140;2023-02-19T00:26:29;27.10;;;16.27;;
15806;SDS011;8005;51.368;6.140;2023-02-19T00:28:01;24.88;;;15.38;;
15806;SDS011;8005;51.368;6.140;2023-02-19T00:29:33;28.92;;;16.95;;
15806;SDS011;8005;51.368;6.140;2023-02-19T00:31:06;31.50;;;17.80;;
15806;SDS011;8005;51.368;6.140;2023-02-19T00:32:39;29.65;;;16.83;;
15806;SDS011;8005;51.368;6.140;2023-02-19T00:34:14;28.45;;;17.27;;
15806;SDS011;8005;51.368;6.140;2023-02-19T00:35:46;28.52;;;16.08;;
15806;SDS011;8005;51.368;6.140;2023-02-19T00:37:18;30.00;;;16.47;;
15806;SDS011;8005;51.368;6.140;2023-02-19T00:38:51;29.40;;;16.02;;
15806;SDS011;8005;51.368;6.140;2023-02-19T00:40:23;27.15;;;16.40;;
15806;SDS011;8005;51.368;6.140;2023-02-19T00:41:57;29.15;;;15.57;;
15806;SDS011;8005;51.368;6.140;2023-02-19T00:43:31;30.48;;;16.50;;
15806;SDS011;8005;51.368;6.140;2023-02-19T00:45:03;31.15;;;16.50;;
15806;SDS011;8005;51.368;6.140;2023-02-19T00:48:09;37.88;;;17.15;;
15806;SDS011;8005;51.368;6.140;2023-02-19T00:49:43;29.48;;;15.85;;
15806;SDS011;8005;51.368;6.140;2023-02-19T00:51:18;29.75;;;17.02;;
15806;SDS011;8005;51.368;6.140;2023-02-19T00:52:51;31.20;;;16.98;;
15806;SDS011;8005;51.368;6.140;2023-02-19T00:54:23;28.58;;;16.42;;
15806;SDS011;8005;51.368;6.140;2023-02-19T00:55:55;30.50;;;15.93;;
15806;SDS011;8005;51.368;6.140;2023-02-19T00:57:30;30.33;;;15.85;;
15806;SDS011;8005;51.368;6.140;2023-02-19T00:59:05;29.48;;;16.98;;
15806;SDS011;8005;51.368;6.140;2023-02-19T01:00:41;27.23;;;16.33;;
15806;SDS011;8005;51.368;6.140;2023-02-19T01:02:14;29.20;;;16.25;;
15806;SDS011;8005;51.368;6.140;2023-02-19T01:03:46;30.08;;;16.77;;
15806;SDS011;8005;51.368;6.140;2023-02-19T01:05:18;35.70;;;17.50;;
15806;SDS011;8005;51.368;6.140;2023-02-19T01:06:51;28.13;;;15.93;;
15806;SDS011;8005;51.368;6.140;2023-02-19T01:08:25;32.15;;;18.13;;
15806;SDS011;8005;51.368;6.140;2023-02-19T01:09:58;35.45;;;18.42;;
15806;SDS011;8005;51.368;6.140;2023-02-19T01:11:30;31.52;;;17.50;;
15806;SDS011;8005;51.368;6.140;2023-02-19T01:13:02;34.78;;;19.60;;
15806;SDS011;8005;51.368;6.140;2023-02-19T01:14:35;34.90;;;18.70;;
15806;SDS011;8005;51.368;6.140;2023-02-19T01:16:11;33.55;;;17.33;;
15806;SDS011;8005;51.368;6.140;2023-02-19T01:17:44;34.70;;;17.85;;
15806;SDS011;8005;51.368;6.140;2023-02-19T01:19:18;37.00;;;17.85;;
15806;SDS011;8005;51.368;6.140;2023-02-19T01:20:52;34.33;;;18.08;;
15806;SDS011;8005;51.368;6.140;2023-02-19T01:22:24;38.28;;;18.88;;
15806;SDS011;8005;51.368;6.140;2023-02-19T01:23:56;37.20;;;19.52;;
15806;SDS011;8005;51.368;6.140;2023-02-19T01:25:29;35.45;;;18.05;;
15806;SDS011;8005;51.368;6.140;2023-02-19T01:27:04;30.83;;;18.05;;
15806;SDS011;8005;51.368;6.140;2023-02-19T01:28:36;40.53;;;18.60;;
15806;SDS011;8005;51.368;6.140;2023-02-19T01:30:08;34.55;;;19.10;;
15806;SDS011;8005;51.368;6.140;2023-02-19T01:33:13;36.20;;;18.75;;
15806;SDS011;8005;51.368;6.140;2023-02-19T01:34:45;41.03;;;18.77;;
15806;SDS011;8005;51.368;6.140;2023-02-19T01:36:18;33.38;;;18.77;;
15806;SDS011;8005;51.368;6.140;2023-02-19T01:37:50;34.38;;;18.42;;
15806;SDS011;8005;51.368;6.140;2023-02-19T01:39:22;37.88;;;18.48;;
15806;SDS011;8005;51.368;6.140;2023-02-19T01:40:55;32.92;;;19.42;;
15806;SDS011;8005;51.368;6.140;2023-02-19T01:42:31;36.08;;;18.90;;
15806;SDS011;8005;51.368;6.140;2023-02-19T01:45:44;35.17;;;19.30;;
15806;SDS011;8005;51.368;6.140;2023-02-19T01:47:17;31.85;;;17.45;;
15806;SDS011;8005;51.368;6.140;2023-02-19T01:48:55;31.80;;;17.73;;
15806;SDS011;8005;51.368;6.140;2023-02-19T01:51:06;35.38;;;19.25;;
15806;SDS011;8005;51.368;6.140;2023-02-19T01:52:43;32.38;;;17.15;;
15806;SDS011;8005;51.368;6.140;2023-02-19T01:54:36;34.05;;;19.58;;
15806;SDS011;8005;51.368;6.140;2023-02-19T01:56:10;38.60;;;19.35;;
15806;SDS011;8005;51.368;6.140;2023-02-19T01:57:44;39.92;;;19.40;;
15806;SDS011;8005;51.368;6.140;2023-02-19T02:01:10;33.22;;;18.48;;
15806;SDS011;8005;51.368;6.140;2023-02-19T02:02:48;33.38;;;19.98;;
15806;SDS011;8005;51.368;6.140;2023-02-19T02:04:22;33.72;;;19.73;;
15806;SDS011;8005;51.368;6.140;2023-02-19T02:06:01;37.83;;;20.05;;
15806;SDS011;8005;51.368;6.140;2023-02-19T02:07:45;37.40;;;20.60;;
15806;SDS011;8005;51.368;6.140;2023-02-19T02:09:35;41.05;;;19.85;;
15806;SDS011;8005;51.368;6.140;2023-02-19T02:11:26;40.85;;;19.58;;
15806;SDS011;8005;51.368;6.140;2023-02-19T02:12:58;36.50;;;21.25;;
15806;SDS011;8005;51.368;6.140;2023-02-19T02:14:32;43.00;;;20.95;;
15806;SDS011;8005;51.368;6.140;2023-02-19T02:16:26;37.78;;;20.27;;
15806;SDS011;8005;51.368;6.140;2023-02-19T02:18:24;35.90;;;20.10;;
15806;SDS011;8005;51.368;6.140;2023-02-19T02:21:57;34.80;;;17.42;;
15806;SDS011;8005;51.368;6.140;2023-02-19T02:23:46;35.97;;;19.63;;
15806;SDS011;8005;51.368;6.140;2023-02-19T02:25:27;36.13;;;18.92;;
15806;SDS011;8005;51.368;6.140;2023-02-19T02:27:16;35.70;;;18.65;;
15806;SDS011;8005;51.368;6.140;2023-02-19T02:30:58;32.15;;;18.00;;
15806;SDS011;8005;51.368;6.140;2023-02-19T02:32:41;41.30;;;17.73;;
15806;SDS011;8005;51.368;6.140;2023-02-19T02:34:29;34.80;;;18.17;;
15806;SDS011;8005;51.368;6.140;2023-02-19T02:36:14;34.60;;;18.25;;
15806;SDS011;8005;51.368;6.140;2023-02-19T02:37:48;37.20;;;17.77;;
15806;SDS011;8005;51.368;6.140;2023-02-19T02:39:26;33.55;;;17.42;;
15806;SDS011;8005;51.368;6.140;2023-02-19T02:41:05;33.83;;;17.50;;
15806;SDS011;8005;51.368;6.140;2023-02-19T02:42:38;38.90;;;17.48;;
15806;SDS011;8005;51.368;6.140;2023-02-19T02:44:17;30.90;;;17.00;;
15806;SDS011;8005;51.368;6.140;2023-02-19T02:45:50;35.47;;;18.38;;
15806;SDS011;8005;51.368;6.140;2023-02-19T02:47:29;36.88;;;18.33;;
15806;SDS011;8005;51.368;6.140;2023-02-19T02:49:19;33.70;;;16.73;;
15806;SDS011;8005;51.368;6.140;2023-02-19T02:51:08;33.15;;;17.85;;
15806;SDS011;8005;51.368;6.140;2023-02-19T02:53:07;33.15;;;15.82;;
15806;SDS011;8005;51.368;6.140;2023-02-19T02:55:01;31.17;;;16.67;;
15806;SDS011;8005;51.368;6.140;2023-02-19T02:56:35;32.67;;;15.75;;
15806;SDS011;8005;51.368;6.140;2023-02-19T02:58:08;32.70;;;16.17;;
15806;SDS011;8005;51.368;6.140;2023-02-19T02:59:41;31.30;;;16.05;;
15806;SDS011;8005;51.368;6.140;2023-02-19T03:01:18;27.50;;;16.02;;
15806;SDS011;8005;51.368;6.140;2023-02-19T03:03:12;26.70;;;14.45;;
15806;SDS011;8005;51.368;6.140;2023-02-19T03:06:45;25.70;;;13.95;;
15806;SDS011;8005;51.368;6.140;2023-02-19T03:09:54;24.25;;;13.00;;
15806;SDS011;8005;51.368;6.140;2023-02-19T03:11:27;26.08;;;13.20;;
15806;SDS011;8005;51.368;6.140;2023-02-19T03:13:26;26.75;;;13.15;;
15806;SDS011;8005;51.368;6.140;2023-02-19T03:15:20;25.73;;;12.25;;
15806;SDS011;8005;51.368;6.140;2023-02-19T03:17:17;25.13;;;13.73;;
15806;SDS011;8005;51.368;6.140;2023-02-19T03:19:27;24.38;;;12.02;;
15806;SDS011;8005;51.368;6.140;2023-02-19T03:21:02;25.52;;;11.00;;
15806;SDS011;8005;51.368;6.140;2023-02-19T03:24:07;25.73;;;12.52;;
15806;SDS011;8005;51.368;6.140;2023-02-19T03:25:59;24.15;;;11.77;;
15806;SDS011;8005;51.368;6.140;2023-02-19T03:27:45;27.60;;;11.18;;
15806;SDS011;8005;51.368;6.140;2023-02-19T03:29:21;25.83;;;11.60;;
15806;SDS011;8005;51.368;6.140;2023-02-19T03:30:57;27.13;;;10.52;;
15806;SDS011;8005;51.368;6.140;2023-02-19T03:32:32;23.90;;;11.40;;
15806;SDS011;8005;51.368;6.140;2023-02-19T03:34:21;26.55;;;11.20;;
15806;SDS011;8005;51.368;6.140;2023-02-19T03:35:59;18.80;;;10.20;;
15806;SDS011;8005;51.368;6.140;2023-02-19T03:39:42;25.38;;;11.20;;
15806;SDS011;8005;51.368;6.140;2023-02-19T03:41:40;23.83;;;9.93;;
15806;SDS011;8005;51.368;6.140;2023-02-19T03:43:20;25.70;;;10.45;;
15806;SDS011;8005;51.368;6.140;2023-02-19T03:45:18;22.58;;;10.07;;
15806;SDS011;8005;51.368;6.140;2023-02-19T03:53:08;24.27;;;9.40;;
15806;SDS011;8005;51.368;6.140;2023-02-19T03:56:51;23.70;;;10.60;;
15806;SDS011;8005;51.368;6.140;2023-02-19T04:00:31;24.27;;;9.38;;
15806;SDS011;8005;51.368;6.140;2023-02-19T04:02:09;24.67;;;10.25;;
15806;SDS011;8005;51.368;6.140;2023-02-19T04:05:31;18.63;;;8.05;;
15806;SDS011;8005;51.368;6.140;2023-02-19T04:07:04;25.92;;;9.10;;
15806;SDS011;8005;51.368;6.140;2023-02-19T04:08:41;19.40;;;7.93;;
15806;SDS011;8005;51.368;6.140;2023-02-19T04:10:16;23.27;;;9.68;;
15806;SDS011;8005;51.368;6.140;2023-02-19T04:11:52;26.95;;;8.82;;
15806;SDS011;8005;51.368;6.140;2023-02-19T04:13:26;20.42;;;8.82;;
15806;SDS011;8005;51.368;6.140;2023-02-19T04:15:21;20.42;;;9.40;;
15806;SDS011;8005;51.368;6.140;2023-02-19T04:16:59;21.10;;;9.23;;
15806;SDS011;8005;51.368;6.140;2023-02-19T04:18:35;27.42;;;8.70;;
15806;SDS011;8005;51.368;6.140;2023-02-19T04:20:09;25.83;;;8.63;;
15806;SDS011;8005;51.368;6.140;2023-02-19T04:21:41;25.38;;;8.73;;
15806;SDS011;8005;51.368;6.140;2023-02-19T04:23:16;20.02;;;9.05;;
15806;SDS011;8005;51.368;6.140;2023-02-19T04:24:51;23.67;;;8.93;;
15806;SDS011;8005;51.368;6.140;2023-02-19T04:26:24;25.25;;;9.10;;
15806;SDS011;8005;51.368;6.140;2023-02-19T04:27:56;17.67;;;8.00;;
15806;SDS011;8005;51.368;6.140;2023-02-19T04:31:01;26.13;;;8.77;;
15806;SDS011;8005;51.368;6.140;2023-02-19T04:32:33;26.70;;;8.93;;
15806;SDS011;8005;51.368;6.140;2023-02-19T04:34:05;25.43;;;8.87;;
15806;SDS011;8005;51.368;6.140;2023-02-19T04:35:37;24.30;;;9.07;;
15806;SDS011;8005;51.368;6.140;2023-02-19T04:37:11;22.77;;;9.68;;
15806;SDS011;8005;51.368;6.140;2023-02-19T04:38:44;25.15;;;8.10;;
15806;SDS011;8005;51.368;6.140;2023-02-19T04:40:16;23.52;;;8.98;;
15806;SDS011;8005;51.368;6.140;2023-02-19T04:41:50;25.13;;;8.00;;
15806;SDS011;8005;51.368;6.140;2023-02-19T04:43:22;26.63;;;8.87;;
15806;SDS011;8005;51.368;6.140;2023-02-19T04:44:57;25.23;;;9.18;;
15806;SDS011;8005;51.368;6.140;2023-02-19T04:46:29;24.00;;;8.52;;
15806;SDS011;8005;51.368;6.140;2023-02-19T04:48:01;29.83;;;7.95;;
15806;SDS011;8005;51.368;6.140;2023-02-19T04:49:33;27.47;;;8.53;;
15806;SDS011;8005;51.368;6.140;2023-02-19T04:51:05;21.03;;;7.07;;
15806;SDS011;8005;51.368;6.140;2023-02-19T04:52:38;18.95;;;7.00;;
15806;SDS011;8005;51.368;6.140;2023-02-19T04:54:10;19.38;;;6.70;;
15806;SDS011;8005;51.368;6.140;2023-02-19T04:55:42;20.20;;;7.80;;
15806;SDS011;8005;51.368;6.140;2023-02-19T04:57:14;18.33;;;7.43;;
15806;SDS011;8005;51.368;6.140;2023-02-19T04:58:46;20.98;;;7.47;;
15806;SDS011;8005;51.368;6.140;2023-02-19T05:00:18;20.27;;;7.70;;
15806;SDS011;8005;51.368;6.140;2023-02-19T05:01:50;20.33;;;6.80;;
15806;SDS011;8005;51.368;6.140;2023-02-19T05:03:22;27.85;;;7.55;;
15806;SDS011;8005;51.368;6.140;2023-02-19T05:04:56;21.70;;;6.97;;
15806;SDS011;8005;51.368;6.140;2023-02-19T05:06:28;18.13;;;6.38;;
15806;SDS011;8005;51.368;6.140;2023-02-19T05:08:01;18.58;;;6.20;;
15806;SDS011;8005;51.368;6.140;2023-02-19T05:09:36;17.17;;;5.83;;
15806;SDS011;8005;51.368;6.140;2023-02-19T05:11:09;21.38;;;5.65;;
15806;SDS011;8005;51.368;6.140;2023-02-19T05:12:42;21.77;;;6.32;;
15806;SDS011;8005;51.368;6.140;2023-02-19T05:14:17;17.15;;;6.18;;
15806;SDS011;8005;51.368;6.140;2023-02-19T05:15:59;18.37;;;5.57;;
15806;SDS011;8005;51.368;6.140;2023-02-19T05:17:33;22.83;;;5.60;;
15806;SDS011;8005;51.368;6.140;2023-02-19T05:19:05;18.40;;;6.25;;
15806;SDS011;8005;51.368;6.140;2023-02-19T05:20:37;18.83;;;5.70;;
15806;SDS011;8005;51.368;6.140;2023-02-19T05:22:09;19.67;;;5.63;;
15806;SDS011;8005;51.368;6.140;2023-02-19T05:23:41;22.67;;;5.03;;
15806;SDS011;8005;51.368;6.140;2023-02-19T05:25:14;27.42;;;5.93;;
15806;SDS011;8005;51.368;6.140;2023-02-19T05:26:46;18.70;;;4.80;;
15806;SDS011;8005;51.368;6.140;2023-02-19T05:28:19;16.85;;;4.90;;
15806;SDS011;8005;51.368;6.140;2023-02-19T05:31:23;22.13;;;6.07;;
15806;SDS011;8005;51.368;6.140;2023-02-19T05:32:55;19.10;;;5.07;;
15806;SDS011;8005;51.368;6.140;2023-02-19T05:34:27;26.60;;;5.05;;
15806;SDS011;8005;51.368;6.140;2023-02-19T05:36:02;18.58;;;4.63;;
15806;SDS011;8005;51.368;6.140;2023-02-19T05:37:38;28.02;;;5.47;;
15806;SDS011;8005;51.368;6.140;2023-02-19T05:39:12;16.35;;;4.75;;
15806;SDS011;8005;51.368;6.140;2023-02-19T05:40:45;19.35;;;4.95;;
15806;SDS011;8005;51.368;6.140;2023-02-19T05:42:17;15.07;;;4.28;;
15806;SDS011;8005;51.368;6.140;2023-02-19T05:43:49;20.40;;;5.07;;
15806;SDS011;8005;51.368;6.140;2023-02-19T05:45:22;15.98;;;4.97;;
15806;SDS011;8005;51.368;6.140;2023-02-19T05:46:54;21.48;;;4.45;;
15806;SDS011;8005;51.368;6.140;2023-02-19T05:48:28;16.73;;;5.15;;
15806;SDS011;8005;51.368;6.140;2023-02-19T05:50:02;23.25;;;5.55;;
15806;SDS011;8005;51.368;6.140;2023-02-19T05:51:37;15.85;;;5.20;;
15806;SDS011;8005;51.368;6.140;2023-02-19T05:53:11;20.30;;;4.68;;
15806;SDS011;8005;51.368;6.140;2023-02-19T05:54:44;17.90;;;5.22;;
15806;SDS011;8005;51.368;6.140;2023-02-19T05:58:10;31.35;;;5.80;;
15806;SDS011;8005;51.368;6.140;2023-02-19T05:59:42;17.00;;;5.77;;
15806;SDS011;8005;51.368;6.140;2023-02-19T06:01:25;20.00;;;5.40;;
15806;SDS011;8005;51.368;6.140;2023-02-19T06:02:58;21.25;;;6.45;;
15806;SDS011;8005;51.368;6.140;2023-02-19T06:04:31;18.55;;;5.93;;
15806;SDS011;8005;51.368;6.140;2023-02-19T06:06:02;22.05;;;6.90;;
15806;SDS011;8005;51.368;6.140;2023-02-19T06:07:37;19.48;;;5.78;;
15806;SDS011;8005;51.368;6.140;2023-02-19T06:09:10;16.60;;;6.00;;
15806;SDS011;8005;51.368;6.140;2023-02-19T06:10:42;19.38;;;5.35;;
15806;SDS011;8005;51.368;6.140;2023-02-19T06:12:17;21.23;;;5.63;;
15806;SDS011;8005;51.368;6.140;2023-02-19T06:13:49;23.95;;;5.90;;
15806;SDS011;8005;51.368;6.140;2023-02-19T06:15:21;21.33;;;6.55;;
15806;SDS011;8005;51.368;6.140;2023-02-19T06:16:53;20.03;;;5.97;;
15806;SDS011;8005;51.368;6.140;2023-02-19T06:18:25;14.90;;;5.85;;
15806;SDS011;8005;51.368;6.140;2023-02-19T06:19:57;18.70;;;6.93;;
15806;SDS011;8005;51.368;6.140;2023-02-19T06:21:29;18.80;;;6.30;;
15806;SDS011;8005;51.368;6.140;2023-02-19T06:23:01;20.38;;;6.20;;
15806;SDS011;8005;51.368;6.140;2023-02-19T06:24:37;22.13;;;5.93;;
15806;SDS011;8005;51.368;6.140;2023-02-19T06:27:49;23.10;;;5.57;;
15806;SDS011;8005;51.368;6.140;2023-02-19T06:29:21;16.98;;;5.55;;
15806;SDS011;8005;51.368;6.140;2023-02-19T06:30:53;17.57;;;6.10;;
15806;SDS011;8005;51.368;6.140;2023-02-19T06:32:25;21.10;;;5.90;;
15806;SDS011;8005;51.368;6.140;2023-02-19T06:33:57;18.35;;;6.20;;
15806;SDS011;8005;51.368;6.140;2023-02-19T06:35:29;21.15;;;6.57;;
15806;SDS011;8005;51.368;6.140;2023-02-19T06:37:01;23.57;;;7.47;;
15806;SDS011;8005;51.368;6.140;2023-02-19T06:38:33;22.67;;;5.25;;
15806;SDS011;8005;51.368;6.140;2023-02-19T06:40:05;17.13;;;5.00;;
15806;SDS011;8005;51.368;6.140;2023-02-19T06:41:38;18.13;;;5.80;;
15806;SDS011;8005;51.368;6.140;2023-02-19T06:43:10;20.80;;;6.05;;
15806;SDS011;8005;51.368;6.140;2023-02-19T06:44:42;22.60;;;6.40;;
15806;SDS011;8005;51.368;6.140;2023-02-19T06:46:14;21.70;;;5.77;;
15806;SDS011;8005;51.368;6.140;2023-02-19T06:47:46;16.70;;;5.80;;
15806;SDS011;8005;51.368;6.140;2023-02-19T06:49:18;18.15;;;6.07;;
15806;SDS011;8005;51.368;6.140;2023-02-19T06:50:50;19.80;;;6.45;;
15806;SDS011;8005;51.368;6.140;2023-02-19T06:52:22;21.58;;;5.55;;
15806;SDS011;8005;51.368;6.140;2023-02-19T06:53:54;21.25;;;6.53;;
15806;SDS011;8005;51.368;6.140;2023-02-19T06:55:26;15.80;;;6.22;;
15806;SDS011;8005;51.368;6.140;2023-02-19T06:56:58;21.73;;;6.38;;
15806;SDS011;8005;51.368;6.140;2023-02-19T06:58:41;18.92;;;6.40;;
15806;SDS011;8005;51.368;6.140;2023-02-19T07:00:23;24.45;;;6.07;;
15806;SDS011;8005;51.368;6.140;2023-02-19T07:04:14;22.35;;;6.88;;
15806;SDS011;8005;51.368;6.140;2023-02-19T07:05:52;26.67;;;6.53;;
15806;SDS011;8005;51.368;6.140;2023-02-19T07:07:50;18.00;;;6.13;;
15806;SDS011;8005;51.368;6.140;2023-02-19T07:09:29;21.30;;;7.45;;
15806;SDS011;8005;51.368;6.140;2023-02-19T07:11:03;22.52;;;6.03;;
15806;SDS011;8005;51.368;6.140;2023-02-19T07:12:41;20.27;;;5.75;;
15806;SDS011;8005;51.368;6.140;2023-02-19T07:14:23;23.60;;;5.75;;
15806;SDS011;8005;51.368;6.140;2023-02-19T07:15:59;20.70;;;6.57;;
15806;SDS011;8005;51.368;6.140;2023-02-19T07:17:33;26.10;;;7.15;;
15806;SDS011;8005;51.368;6.140;2023-02-19T07:20:39;19.52;;;5.78;;
15806;SDS011;8005;51.368;6.140;2023-02-19T07:22:11;17.03;;;5.57;;
15806;SDS011;8005;51.368;6.140;2023-02-19T07:23:54;27.88;;;7.18;;
15806;SDS011;8005;51.368;6.140;2023-02-19T07:25:29;18.90;;;6.20;;
15806;SDS011;8005;51.368;6.140;2023-02-19T07:29:35;26.10;;;6.80;;
15806;SDS011;8005;51.368;6.140;2023-02-19T07:34:07;17.02;;;6.15;;
15806;SDS011;8005;51.368;6.140;2023-02-19T07:35:49;20.35;;;6.72;;
15806;SDS011;8005;51.368;6.140;2023-02-19T07:37:21;22.10;;;7.00;;
15806;SDS011;8005;51.368;6.140;2023-02-19T07:38:56;19.05;;;5.72;;
15806;SDS011;8005;51.368;6.140;2023-02-19T07:40:31;19.08;;;6.07;;
15806;SDS011;8005;51.368;6.140;2023-02-19T07:42:06;26.85;;;7.95;;
15806;SDS011;8005;51.368;6.140;2023-02-19T07:43:38;25.02;;;6.13;;
15806;SDS011;8005;51.368;6.140;2023-02-19T07:45:13;20.35;;;5.95;;
15806;SDS011;8005;51.368;6.140;2023-02-19T07:49:41;21.55;;;6.45;;
15806;SDS011;8005;51.368;6.140;2023-02-19T07:53:20;19.25;;;6.22;;
15806;SDS011;8005;51.368;6.140;2023-02-19T07:59:56;26.42;;;6.95;;
15806;SDS011;8005;51.368;6.140;2023-02-19T08:01:52;24.08;;;6.68;;
15806;SDS011;8005;51.368;6.140;2023-02-19T08:03:56;24.88;;;6.57;;
15806;SDS011;8005;51.368;6.140;2023-02-19T08:05:29;23.33;;;6.68;;
15806;SDS011;8005;51.368;6.140;2023-02-19T08:07:03;22.52;;;7.60;;
15806;SDS011;8005;51.368;6.140;2023-02-19T08:08:44;25.77;;;7.70;;
15806;SDS011;8005;51.368;6.140;2023-02-19T08:10:18;21.30;;;6.72;;
15806;SDS011;8005;51.368;6.140;2023-02-19T08:12:37;15.50;;;6.95;;
15806;SDS011;8005;51.368;6.140;2023-02-19T08:14:27;18.67;;;7.63;;
15806;SDS011;8005;51.368;6.140;2023-02-19T08:17:49;19.58;;;7.22;;
15806;SDS011;8005;51.368;6.140;2023-02-19T08:22:51;18.00;;;7.78;;
15806;SDS011;8005;51.368;6.140;2023-02-19T08:24:30;24.08;;;7.25;;
15806;SDS011;8005;51.368;6.140;2023-02-19T08:26:04;21.20;;;7.45;;
15806;SDS011;8005;51.368;6.140;2023-02-19T08:27:36;28.05;;;8.20;;
15806;SDS011;8005;51.368;6.140;2023-02-19T08:29:08;17.17;;;7.33;;
15806;SDS011;8005;51.368;6.140;2023-02-19T08:30:52;16.85;;;6.32;;
15806;SDS011;8005;51.368;6.140;2023-02-19T08:32:24;26.98;;;7.85;;
15806;SDS011;8005;51.368;6.140;2023-02-19T08:33:56;19.90;;;8.75;;
15806;SDS011;8005;51.368;6.140;2023-02-19T08:35:45;25.13;;;7.32;;
15806;SDS011;8005;51.368;6.140;2023-02-19T15:20:39;2.95;;;1.48;;
15806;SDS011;8005;51.368;6.140;2023-02-19T15:29:16;5.55;;;0.82;;
15806;SDS011;8005;51.368;6.140;2023-02-19T16:45:03;3.92;;;2.33;;
15806;SDS011;8005;51.368;6.140;2023-02-19T16:47:36;3.55;;;2.65;;
15806;SDS011;8005;51.368;6.140;2023-02-19T16:52:31;4.78;;;2.53;;
15806;SDS011;8005;51.368;6.140;2023-02-19T16:56:17;5.85;;;2.28;;
15806;SDS011;8005;51.368;6.140;2023-02-19T17:00:25;4.05;;;1.73;;
15806;SDS011;8005;51.368;6.140;2023-02-19T17:03:18;3.67;;;1.75;;
15806;SDS011;8005;51.368;6.140;2023-02-19T17:07:35;3.72;;;1.45;;
15806;SDS011;8005;51.368;6.140;2023-02-19T19:08:42;2.83;;;1.25;;
15806;SDS011;8005;51.368;6.140;2023-02-19T23:57:09;21.85;;;10.52;;
15806;SDS011;8005;51.368;6.140;2023-02-19T23:58:43;21.13;;;10.45;;
